Time;durP1;ratioP1;P1;durP2;ratioP2;P2;SDS_P1;SDS_P2;PMS_P1;PMS_P2;Temp;Humidity;BMP_temperature;BMP_pressure;BME280_temperature;BME280_humidity;BME280_pressure;Samples;Min_cycle;Max_cycle;Signal;HPM_P1;HPM_P2
2022/10/15 00:01:24;;;;;;;10.00;7.40;;;10.50;99.90;;;;;;6292946;22;20015;-68
2022/10/15 00:03:50;;;;;;;17.10;12.65;;;10.30;99.90;;;;;;6291523;22;20133;-67
2022/10/15 00:06:18;;;;;;;19.73;11.73;;;10.30;99.90;;;;;;6292618;22;20616;-68
2022/10/15 00:08:45;;;;;;;13.23;9.75;;;10.30;99.90;;;;;;6262555;22;20023;-69
2022/10/15 00:11:17;;;;;;;9.75;7.93;;;10.30;99.90;;;;;;6291779;22;19999;-68
2022/10/15 00:13:43;;;;;;;8.63;7.65;;;10.20;99.90;;;;;;6291786;22;20015;-68
2022/10/15 00:16:13;;;;;;;13.82;8.02;;;10.10;99.90;;;;;;6291911;22;20439;-68
2022/10/15 00:18:39;;;;;;;8.98;7.55;;;10.00;99.90;;;;;;6262216;22;20150;-68
2022/10/15 00:21:07;;;;;;;8.68;7.15;;;10.00;99.90;;;;;;6289689;22;20033;-70
2022/10/15 00:23:33;;;;;;;11.18;7.57;;;9.90;99.90;;;;;;6287975;22;20007;-70
2022/10/15 00:26:05;;;;;;;10.57;8.68;;;9.80;99.90;;;;;;6288031;22;20003;-70
2022/10/15 00:28:31;;;;;;;9.80;7.97;;;9.70;99.90;;;;;;6292696;22;20010;-70
2022/10/15 00:31:09;;;;;;;11.65;7.88;;;9.70;99.90;;;;;;6292564;22;20003;-70
2022/10/15 00:33:36;;;;;;;16.42;9.40;;;9.60;99.90;;;;;;6291200;22;20019;-70
2022/10/15 00:36:07;;;;;;;14.65;11.30;;;9.70;99.90;;;;;;6289167;22;20003;-70
2022/10/15 00:38:34;;;;;;;26.00;17.48;;;9.80;99.90;;;;;;6292728;22;20072;-70
2022/10/15 00:41:00;;;;;;;23.77;16.38;;;9.80;99.90;;;;;;6263608;22;20095;-70
2022/10/15 00:43:44;;;;;;;27.88;16.55;;;9.80;99.90;;;;;;6292221;22;20926;-70
2022/10/15 00:46:36;;;;;;;10.32;8.80;;;9.80;99.90;;;;;;6260996;22;20007;-70
2022/10/15 00:49:22;;;;;;;12.50;8.52;;;9.80;99.90;;;;;;6288734;22;20019;-70
2022/10/15 00:52:02;;;;;;;9.13;7.90;;;9.60;99.90;;;;;;6289720;22;20662;-70
2022/10/15 00:54:33;;;;;;;9.50;8.02;;;9.50;99.90;;;;;;6292812;22;20068;-70
2022/10/15 00:56:59;;;;;;;10.27;7.18;;;9.50;99.90;;;;;;6292713;22;20544;-71
2022/10/15 00:59:26;;;;;;;9.02;6.75;;;9.40;99.90;;;;;;6293338;22;20003;-70
2022/10/15 01:01:52;;;;;;;10.20;7.25;;;9.30;99.90;;;;;;6291608;22;20027;-71
2022/10/15 01:04:17;;;;;;;10.77;8.85;;;9.30;99.90;;;;;;6291688;22;20000;-70
2022/10/15 01:06:44;;;;;;;11.25;8.90;;;9.40;99.90;;;;;;6291772;22;20043;-70
2022/10/15 01:09:11;;;;;;;9.02;7.10;;;9.30;99.90;;;;;;6291615;22;20515;-72
2022/10/15 01:11:51;;;;;;;20.88;10.98;;;9.30;99.90;;;;;;6294231;22;20011;-72
2022/10/15 01:14:19;;;;;;;17.77;13.55;;;9.40;99.90;;;;;;6293233;22;20015;-72
2022/10/15 01:16:49;;;;;;;21.15;15.27;;;9.50;99.90;;;;;;6292677;22;20030;-72
2022/10/15 01:19:30;;;;;;;21.00;15.57;;;9.50;99.90;;;;;;6292814;22;20011;-72
2022/10/15 01:22:28;;;;;;;24.55;17.50;;;9.60;99.90;;;;;;6266213;22;20011;-70
2022/10/15 01:25:09;;;;;;;15.27;10.90;;;9.60;99.90;;;;;;6262813;22;20169;-72
2022/10/15 01:27:42;;;;;;;7.85;6.65;;;9.60;99.90;;;;;;6292802;22;20011;-71
2022/10/15 01:30:37;;;;;;;8.80;7.10;;;9.50;99.90;;;;;;6292673;22;20061;-71
2022/10/15 01:33:15;;;;;;;12.00;7.15;;;9.40;99.90;;;;;;6286579;22;20061;-71
2022/10/15 01:35:43;;;;;;;17.83;11.32;;;9.30;99.90;;;;;;6296764;22;20008;-72
2022/10/15 01:38:24;;;;;;;8.60;7.13;;;9.30;99.90;;;;;;6295629;22;20064;-73
2022/10/15 01:40:56;;;;;;;10.50;8.85;;;9.30;99.90;;;;;;6295816;22;20011;-71
2022/10/15 01:43:45;;;;;;;10.27;9.20;;;9.10;99.90;;;;;;6296677;22;20026;-71
2022/10/15 01:46:36;;;;;;;11.15;8.80;;;9.00;99.90;;;;;;6295864;22;20015;-71
2022/10/15 01:49:04;;;;;;;11.88;8.35;;;8.90;99.90;;;;;;6267657;22;20360;-71
2022/10/15 01:51:32;;;;;;;10.50;9.13;;;8.90;99.90;;;;;;6297081;22;20011;-71
2022/10/15 01:53:59;;;;;;;13.45;9.00;;;8.90;99.90;;;;;;6294056;22;20025;-71
2022/10/15 01:56:28;;;;;;;14.85;9.88;;;9.00;99.90;;;;;;6297377;22;20004;-71
2022/10/15 01:58:55;;;;;;;17.75;12.55;;;9.00;99.90;;;;;;6294164;22;20034;-71
2022/10/15 02:01:21;;;;;;;20.88;18.30;;;9.00;99.90;;;;;;6296578;22;20025;-71
2022/10/15 02:03:50;;;;;;;18.33;15.65;;;9.00;99.90;;;;;;6295020;22;19999;-71
2022/10/15 02:06:33;;;;;;;20.60;16.98;;;9.00;99.90;;;;;;6295782;22;20416;-71
2022/10/15 02:09:12;;;;;;;24.80;19.85;;;9.00;99.90;;;;;;6291974;22;20007;-71
2022/10/15 02:12:17;;;;;;;17.65;15.30;;;9.00;99.90;;;;;;6294824;22;20008;-71
2022/10/15 02:15:10;;;;;;;18.10;15.00;;;9.00;99.90;;;;;;6294344;22;20038;-71
2022/10/15 02:18:17;;;;;;;17.98;15.13;;;9.00;99.90;;;;;;6293218;22;19999;-70
2022/10/15 02:21:06;;;;;;;18.27;15.27;;;9.00;99.90;;;;;;6248006;22;20003;-71
2022/10/15 02:23:42;;;;;;;19.25;14.98;;;9.10;99.90;;;;;;6267113;22;20030;-71
2022/10/15 02:26:10;;;;;;;22.48;19.30;;;9.10;99.90;;;;;;6296261;22;20437;-71
2022/10/15 02:28:40;;;;;;;24.95;20.92;;;9.00;99.90;;;;;;6293928;22;20015;-71
2022/10/15 02:31:07;;;;;;;27.95;24.88;;;9.00;99.90;;;;;;6295378;22;20424;-71
2022/10/15 02:33:34;;;;;;;28.95;25.58;;;9.10;99.90;;;;;;6294995;22;20011;-72
2022/10/15 02:36:00;;;;;;;22.60;20.05;;;9.20;99.90;;;;;;6295601;22;20007;-73
2022/10/15 02:38:30;;;;;;;14.68;12.63;;;9.20;99.90;;;;;;6291670;22;20814;-73
2022/10/15 02:40:56;;;;;;;14.30;12.00;;;9.10;99.90;;;;;;6295065;22;19995;-73
2022/10/15 02:43:21;;;;;;;14.20;10.95;;;8.90;99.90;;;;;;6294947;22;20056;-73
2022/10/15 02:45:48;;;;;;;22.15;18.92;;;9.00;99.90;;;;;;6264064;22;19999;-74
2022/10/15 02:48:14;;;;;;;25.70;21.38;;;9.10;99.90;;;;;;6292998;22;20019;-74
2022/10/15 02:50:40;;;;;;;15.73;13.32;;;9.10;99.90;;;;;;6266665;22;20012;-74
2022/10/15 02:53:05;;;;;;;15.90;13.45;;;9.20;99.90;;;;;;6293005;22;20054;-74
2022/10/15 02:55:31;;;;;;;18.48;13.65;;;9.10;99.90;;;;;;6267301;22;20396;-74
2022/10/15 02:57:57;;;;;;;17.73;13.40;;;9.10;99.90;;;;;;6296660;22;19999;-72
2022/10/15 03:00:22;;;;;;;18.02;13.27;;;9.10;99.90;;;;;;6267668;22;20011;-72
2022/10/15 03:02:48;;;;;;;19.63;13.95;;;9.00;99.90;;;;;;6294213;22;20510;-72
2022/10/15 03:05:14;;;;;;;19.90;16.85;;;9.10;99.90;;;;;;6290904;22;20003;-73
2022/10/15 03:07:39;;;;;;;23.75;16.80;;;9.10;99.90;;;;;;6295572;22;20011;-73
2022/10/15 03:10:06;;;;;;;19.35;15.98;;;9.20;99.90;;;;;;6293798;22;20049;-73
2022/10/15 03:12:32;;;;;;;18.65;15.05;;;9.30;99.90;;;;;;6296783;22;20007;-73
2022/10/15 03:14:57;;;;;;;17.52;13.55;;;9.30;99.90;;;;;;6293961;22;20090;-73
2022/10/15 03:17:23;;;;;;;19.20;14.18;;;9.30;99.90;;;;;;6296035;22;20818;-73
2022/10/15 03:19:48;;;;;;;17.35;13.65;;;9.30;99.90;;;;;;6297006;22;20003;-73
2022/10/15 03:22:14;;;;;;;18.95;13.75;;;9.30;99.90;;;;;;6288435;22;20007;-73
2022/10/15 03:24:40;;;;;;;16.52;13.77;;;9.20;99.90;;;;;;6293262;22;20165;-73
2022/10/15 03:27:05;;;;;;;20.00;15.02;;;9.20;99.90;;;;;;6292416;22;20011;-72
2022/10/15 03:29:31;;;;;;;18.27;14.20;;;9.10;99.90;;;;;;6295527;22;20288;-72
2022/10/15 03:31:56;;;;;;;16.58;14.07;;;9.10;99.90;;;;;;6294483;22;20003;-72
2022/10/15 03:34:22;;;;;;;19.55;14.98;;;9.10;99.90;;;;;;6291369;22;20754;-72
2022/10/15 03:36:47;;;;;;;19.88;14.63;;;9.10;99.90;;;;;;6288573;22;20003;-72
2022/10/15 03:39:13;;;;;;;22.13;15.30;;;9.20;99.90;;;;;;6289373;22;20339;-72
2022/10/15 03:41:39;;;;;;;19.85;15.13;;;9.20;99.90;;;;;;6265299;22;20021;-72
2022/10/15 03:44:07;;;;;;;17.48;15.35;;;9.20;99.90;;;;;;6291831;22;20678;-72
2022/10/15 03:46:33;;;;;;;20.52;15.30;;;9.20;99.90;;;;;;6295263;22;20067;-72
2022/10/15 03:48:59;;;;;;;20.45;15.18;;;9.10;99.90;;;;;;6292665;22;20068;-72
2022/10/15 03:51:25;;;;;;;19.17;14.68;;;9.10;99.90;;;;;;6294298;22;20436;-72
2022/10/15 03:53:52;;;;;;;25.88;15.00;;;9.00;99.90;;;;;;6291553;22;20011;-72
2022/10/15 03:56:17;;;;;;;23.40;15.55;;;9.00;99.90;;;;;;6297253;22;20004;-72
2022/10/15 03:58:43;;;;;;;22.77;16.30;;;8.90;99.90;;;;;;6295976;22;20499;-72
2022/10/15 04:01:14;;;;;;;21.80;15.30;;;8.90;99.90;;;;;;6294525;22;19995;-72
2022/10/15 04:03:40;;;;;;;23.20;15.20;;;8.80;99.90;;;;;;6291806;22;20007;-72
2022/10/15 04:06:06;;;;;;;21.42;16.25;;;8.80;99.90;;;;;;6292621;22;20011;-72
2022/10/15 04:08:32;;;;;;;22.50;16.10;;;8.90;99.90;;;;;;6294888;22;20019;-72
2022/10/15 04:10:58;;;;;;;19.55;15.73;;;8.90;99.90;;;;;;6294976;22;20450;-72
2022/10/15 04:13:25;;;;;;;21.67;15.45;;;8.90;99.90;;;;;;6293266;22;20003;-71
2022/10/15 04:15:50;;;;;;;21.27;15.95;;;8.90;99.90;;;;;;6290643;22;20011;-72
2022/10/15 04:18:16;;;;;;;23.50;15.75;;;8.90;99.90;;;;;;6267895;22;20011;-72
2022/10/15 04:20:42;;;;;;;24.73;16.45;;;8.90;99.90;;;;;;6294241;22;20003;-72
2022/10/15 04:23:08;;;;;;;22.17;14.15;;;8.90;99.90;;;;;;6294591;22;20000;-71
2022/10/15 04:25:36;;;;;;;18.33;13.88;;;8.90;99.90;;;;;;6293289;22;20393;-75
2022/10/15 04:28:01;;;;;;;16.83;13.65;;;8.90;99.90;;;;;;6294623;22;20502;-75
2022/10/15 04:30:27;;;;;;;17.25;13.45;;;8.80;99.90;;;;;;6292216;22;20007;-75
2022/10/15 04:32:53;;;;;;;16.52;13.80;;;8.70;99.90;;;;;;6293088;22;20575;-75
2022/10/15 04:35:19;;;;;;;17.77;13.68;;;8.70;99.90;;;;;;6293063;22;20015;-75
2022/10/15 04:37:45;;;;;;;19.70;13.80;;;8.60;99.90;;;;;;6268048;22;20091;-74
2022/10/15 04:40:11;;;;;;;19.55;13.90;;;8.60;99.90;;;;;;6293412;22;20519;-75
2022/10/15 04:42:37;;;;;;;17.67;14.68;;;8.50;99.90;;;;;;6292224;22;20168;-75
2022/10/15 04:45:03;;;;;;;19.15;15.02;;;8.60;99.90;;;;;;6292466;22;20035;-79
2022/10/15 04:47:28;;;;;;;18.95;15.27;;;8.70;99.90;;;;;;6292437;22;20127;-75
2022/10/15 04:49:54;;;;;;;16.90;14.30;;;8.80;99.90;;;;;;6293043;22;20750;-76
2022/10/15 04:52:20;;;;;;;15.65;12.95;;;8.70;99.90;;;;;;6294348;22;20031;-76
2022/10/15 04:54:45;;;;;;;20.42;14.18;;;8.60;99.90;;;;;;6293570;22;20044;-76
2022/10/15 04:57:11;;;;;;;18.42;13.77;;;8.50;99.90;;;;;;6295612;22;20002;-75
2022/10/15 04:59:36;;;;;;;23.42;15.48;;;8.50;99.90;;;;;;6263070;22;20007;-76
2022/10/15 05:02:02;;;;;;;15.90;12.90;;;8.50;99.90;;;;;;6287361;22;20002;-76
2022/10/15 05:04:28;;;;;;;15.32;13.05;;;8.60;99.90;;;;;;6293232;22;20003;-76
2022/10/15 05:06:53;;;;;;;14.95;12.93;;;8.60;99.90;;;;;;6293619;22;20321;-72
2022/10/15 05:09:19;;;;;;;13.98;12.45;;;8.50;99.90;;;;;;6288045;22;19999;-74
2022/10/15 05:11:45;;;;;;;17.17;12.65;;;8.40;99.90;;;;;;6286801;22;20084;-72
2022/10/15 05:14:11;;;;;;;14.10;12.38;;;8.40;99.90;;;;;;6287785;22;20332;-72
2022/10/15 05:16:36;;;;;;;14.45;12.90;;;8.40;99.90;;;;;;6289133;22;20433;-72
2022/10/15 05:19:05;;;;;;;13.27;11.88;;;8.50;99.90;;;;;;6286003;22;20017;-72
2022/10/15 05:21:32;;;;;;;19.33;12.60;;;8.50;99.90;;;;;;6289611;22;20003;-73
2022/10/15 05:23:59;;;;;;;15.48;13.35;;;8.50;99.90;;;;;;6291523;22;20007;-73
2022/10/15 05:26:26;;;;;;;16.20;12.35;;;8.50;99.90;;;;;;6289451;22;20007;-73
2022/10/15 05:28:52;;;;;;;15.43;11.98;;;8.50;99.90;;;;;;6293427;22;20006;-71
2022/10/15 05:31:20;;;;;;;12.73;11.02;;;8.40;99.90;;;;;;6263349;22;20018;-68
2022/10/15 05:33:47;;;;;;;15.02;11.80;;;8.40;99.90;;;;;;6289810;22;20018;-70
2022/10/15 05:36:22;;;;;;;16.05;11.45;;;8.30;99.90;;;;;;6286699;22;19999;-70
2022/10/15 05:38:51;;;;;;;26.02;22.02;;;8.30;99.90;;;;;;6287253;22;20038;-70
2022/10/15 05:41:17;;;;;;;20.10;13.93;;;8.10;99.90;;;;;;6292340;22;20092;-70
2022/10/15 05:43:45;;;;;;;12.38;10.63;;;8.00;99.90;;;;;;6291748;22;20035;-70
2022/10/15 05:46:10;;;;;;;12.40;10.52;;;8.00;99.90;;;;;;6290177;22;19999;-69
2022/10/15 05:48:36;;;;;;;11.88;10.68;;;8.10;99.90;;;;;;6294529;22;20045;-70
2022/10/15 05:51:07;;;;;;;11.73;10.15;;;8.20;99.90;;;;;;6265762;22;20027;-70
2022/10/15 05:53:33;;;;;;;15.00;11.67;;;8.20;99.90;;;;;;6293966;22;20094;-70
2022/10/15 05:55:59;;;;;;;12.95;10.93;;;8.30;99.90;;;;;;6292615;22;20037;-70
2022/10/15 05:58:26;;;;;;;13.50;11.43;;;8.30;99.90;;;;;;6293475;22;20007;-70
2022/10/15 06:00:59;;;;;;;15.15;12.45;;;8.40;99.90;;;;;;6294084;22;20078;-70
2022/10/15 06:03:26;;;;;;;15.38;11.93;;;8.50;99.90;;;;;;6294343;22;20007;-70
2022/10/15 06:05:53;;;;;;;16.90;11.32;;;8.50;99.90;;;;;;6291493;22;20336;-70
2022/10/15 06:08:19;;;;;;;12.50;10.88;;;8.70;99.90;;;;;;6294067;22;20061;-70
2022/10/15 06:10:45;;;;;;;12.73;10.73;;;8.80;99.90;;;;;;6265397;22;20007;-70
2022/10/15 06:13:11;;;;;;;10.82;9.73;;;8.80;99.90;;;;;;6295900;22;20003;-70
2022/10/15 06:15:44;;;;;;;12.93;10.23;;;8.80;99.90;;;;;;6292050;22;20082;-70
2022/10/15 06:18:14;;;;;;;13.40;10.73;;;8.90;99.90;;;;;;6291253;22;20011;-70
2022/10/15 06:20:41;;;;;;;10.95;9.85;;;8.90;99.90;;;;;;6292871;22;20007;-70
2022/10/15 06:23:08;;;;;;;10.35;9.00;;;8.90;99.90;;;;;;6296127;22;20675;-71
2022/10/15 06:25:34;;;;;;;14.18;11.02;;;9.10;99.90;;;;;;6294921;22;20049;-71
2022/10/15 06:28:06;;;;;;;14.70;11.13;;;9.20;99.90;;;;;;6293140;22;20003;-71
2022/10/15 06:30:32;;;;;;;15.18;11.63;;;9.30;99.90;;;;;;6290482;22;20082;-71
2022/10/15 06:32:57;;;;;;;15.18;11.25;;;9.50;99.90;;;;;;6293685;22;20078;-71
2022/10/15 06:35:25;;;;;;;18.08;11.38;;;9.60;99.90;;;;;;6293843;22;20007;-70
2022/10/15 06:37:51;;;;;;;14.90;11.20;;;9.70;99.90;;;;;;6296001;22;20026;-71
2022/10/15 06:40:17;;;;;;;18.40;11.90;;;9.80;99.90;;;;;;6294712;22;20022;-71
2022/10/15 06:42:43;;;;;;;13.10;11.05;;;9.90;99.90;;;;;;6293801;22;20031;-71
2022/10/15 06:45:09;;;;;;;12.93;11.43;;;10.00;99.90;;;;;;6294117;22;20086;-71
2022/10/15 06:47:35;;;;;;;12.57;11.02;;;10.10;99.90;;;;;;6266713;22;20360;-71
2022/10/15 06:50:04;;;;;;;13.38;11.95;;;10.10;99.90;;;;;;6297231;22;20004;-71
2022/10/15 06:52:29;;;;;;;39.58;21.30;;;10.30;99.90;;;;;;6297020;22;20026;-71
2022/10/15 06:54:55;;;;;;;14.38;12.20;;;10.40;99.90;;;;;;6297802;22;20784;-71
2022/10/15 06:57:20;;;;;;;20.35;13.80;;;10.60;99.90;;;;;;6298515;22;20328;-71
2022/10/15 06:59:46;;;;;;;14.13;12.63;;;10.80;99.90;;;;;;6297710;22;20301;-71
2022/10/15 07:02:16;;;;;;;17.38;14.82;;;11.00;99.90;;;;;;6293610;22;20018;-71
2022/10/15 07:04:42;;;;;;;16.98;13.95;;;11.20;99.90;;;;;;6291597;22;20102;-71
2022/10/15 07:07:08;;;;;;;21.02;14.00;;;11.30;99.90;;;;;;6294809;22;19996;-71
2022/10/15 07:09:34;;;;;;;16.92;13.95;;;11.50;99.90;;;;;;6293830;22;19999;-71
2022/10/15 07:12:00;;;;;;;19.70;14.13;;;11.80;99.90;;;;;;6295019;22;20004;-71
2022/10/15 07:14:25;;;;;;;17.92;14.38;;;12.10;99.90;;;;;;6292607;22;20019;-71
2022/10/15 07:16:51;;;;;;;21.42;16.27;;;12.50;99.90;;;;;;6290150;22;20007;-72
2022/10/15 07:19:17;;;;;;;33.05;26.48;;;12.80;99.90;;;;;;6295208;22;20003;-71
2022/10/15 07:21:42;;;;;;;25.52;18.63;;;13.00;99.90;;;;;;6292648;22;20007;-69
2022/10/15 07:24:08;;;;;;;16.77;14.18;;;13.30;99.90;;;;;;6294077;22;20723;-69
2022/10/15 07:26:33;;;;;;;23.70;16.38;;;13.40;99.90;;;;;;6294430;22;20006;-69
2022/10/15 07:29:00;;;;;;;17.85;14.45;;;13.60;99.90;;;;;;6295490;22;20007;-72
2022/10/15 07:31:25;;;;;;;17.75;13.82;;;13.70;99.90;;;;;;6293949;22;20026;-72
2022/10/15 07:33:51;;;;;;;19.45;14.23;;;13.90;99.90;;;;;;6297087;22;20395;-73
2022/10/15 07:36:19;;;;;;;19.58;13.90;;;14.00;99.90;;;;;;6296928;22;20003;-72
2022/10/15 07:38:45;;;;;;;19.65;15.40;;;14.20;99.90;;;;;;6292814;22;20233;-71
2022/10/15 07:41:11;;;;;;;18.45;14.93;;;14.30;99.90;;;;;;6267123;22;20572;-70
2022/10/15 07:43:37;;;;;;;19.20;15.40;;;14.40;99.90;;;;;;6297084;22;20007;-71
2022/10/15 07:46:03;;;;;;;19.40;12.98;;;14.50;99.90;;;;;;6294735;22;20003;-69
2022/10/15 07:48:29;;;;;;;15.80;13.52;;;14.50;99.90;;;;;;6293196;22;20448;-69
2022/10/15 07:50:57;;;;;;;17.63;15.73;;;14.60;99.90;;;;;;6293317;22;20444;-69
2022/10/15 07:53:22;;;;;;;17.35;13.07;;;14.70;99.90;;;;;;6297275;22;20003;-69
2022/10/15 07:55:48;;;;;;;16.98;12.73;;;14.80;99.90;;;;;;6293906;22;20053;-69
2022/10/15 07:58:14;;;;;;;16.90;12.07;;;14.90;99.90;;;;;;6294415;22;20003;-68
2022/10/15 08:00:40;;;;;;;15.63;11.77;;;15.00;99.90;;;;;;6294286;22;20006;-71
2022/10/15 08:03:06;;;;;;;13.02;10.98;;;15.20;99.90;;;;;;6293063;22;20004;-72
2022/10/15 08:05:33;;;;;;;13.82;11.07;;;15.30;99.90;;;;;;6295632;22;20069;-69
2022/10/15 08:07:58;;;;;;;12.98;10.68;;;15.40;99.90;;;;;;6268815;22;20147;-69
2022/10/15 08:10:24;;;;;;;12.38;10.32;;;15.50;99.90;;;;;;6296880;22;20125;-69
2022/10/15 08:12:50;;;;;;;14.57;9.88;;;15.60;99.90;;;;;;6295343;22;20468;-69
2022/10/15 08:15:15;;;;;;;10.57;9.48;;;15.70;99.90;;;;;;6296593;22;20493;-71
2022/10/15 08:17:41;;;;;;;16.38;9.95;;;15.80;99.90;;;;;;6296562;22;20381;-71
2022/10/15 08:20:07;;;;;;;11.73;9.70;;;15.90;99.90;;;;;;6297220;22;20446;-70
2022/10/15 08:22:33;;;;;;;15.68;10.50;;;15.90;99.90;;;;;;6295143;22;20370;-68
2022/10/15 08:24:58;;;;;;;15.30;9.77;;;15.80;99.90;;;;;;6294886;22;20030;-67
2022/10/15 08:27:25;;;;;;;19.08;10.05;;;15.80;99.90;;;;;;6295848;22;20654;-68
2022/10/15 08:29:50;;;;;;;14.05;9.75;;;15.80;99.90;;;;;;6297080;22;20053;-69
2022/10/15 08:32:16;;;;;;;12.15;9.75;;;15.80;99.90;;;;;;6295707;22;20011;-69
2022/10/15 08:34:41;;;;;;;12.15;9.77;;;15.90;99.90;;;;;;6295488;22;20055;-69
2022/10/15 08:37:07;;;;;;;11.43;8.95;;;16.00;99.90;;;;;;6294914;22;20011;-69
2022/10/15 08:39:33;;;;;;;13.48;9.82;;;16.00;99.90;;;;;;6295173;22;20045;-68
2022/10/15 08:42:02;;;;;;;14.80;9.82;;;16.10;99.90;;;;;;6296247;22;20048;-69
2022/10/15 08:44:37;;;;;;;11.73;9.02;;;16.20;99.90;;;;;;6295076;22;20655;-72
2022/10/15 08:47:12;;;;;;;13.88;9.65;;;16.30;99.90;;;;;;6294715;22;20056;-71
2022/10/15 08:49:51;;;;;;;12.93;9.38;;;16.50;99.90;;;;;;6294579;22;20068;-70
2022/10/15 08:52:28;;;;;;;15.93;10.15;;;16.60;99.90;;;;;;6296620;22;19999;-75
2022/10/15 08:54:55;;;;;;;14.00;10.55;;;16.60;99.90;;;;;;6295294;22;20022;-74
2022/10/15 08:57:47;;;;;;;11.50;10.00;;;16.60;99.90;;;;;;6296209;22;19999;-74
2022/10/15 09:00:17;;;;;;;;;;;16.70;99.90;;;;;;6297171;22;20010;-75
2022/10/15 09:03:06;;;;;;;13.40;8.77;;;16.80;99.90;;;;;;6294498;22;19910;-75
2022/10/15 09:06:04;;;;;;;10.93;8.60;;;16.90;99.90;;;;;;6268393;22;20783;-76
2022/10/15 09:08:50;;;;;;;11.63;8.23;;;17.10;99.90;;;;;;6286380;22;20106;-74
2022/10/15 09:11:54;;;;;;;11.65;8.20;;;17.20;99.90;;;;;;6295867;22;20007;-81
2022/10/15 09:14:27;;;;;;;12.05;8.48;;;17.30;99.90;;;;;;6289071;22;20094;-77
2022/10/15 09:16:53;;;;;;;12.32;8.52;;;17.30;99.90;;;;;;6295839;22;20075;-76
2022/10/15 09:19:22;;;;;;;8.65;7.72;;;17.40;99.90;;;;;;6296532;22;20027;-74
2022/10/15 09:21:49;;;;;;;9.30;7.68;;;17.40;99.90;;;;;;6294125;22;20003;-74
2022/10/15 09:24:22;;;;;;;11.23;8.20;;;17.50;99.90;;;;;;6293315;22;20011;-75
2022/10/15 09:27:00;;;;;;;10.73;7.22;;;17.40;99.90;;;;;;6293503;22;20030;-77
2022/10/15 09:29:34;;;;;;;10.65;7.82;;;17.40;99.90;;;;;;6294323;22;20003;-79
2022/10/15 09:32:22;;;;;;;9.55;7.50;;;17.50;99.90;;;;;;6295109;22;20460;-77
2022/10/15 09:34:59;;;;;;;10.70;7.72;;;17.50;99.90;;;;;;6292838;22;20015;-79
2022/10/15 09:37:27;;;;;;;11.88;7.35;;;17.70;99.90;;;;;;6296083;22;19996;-78
2022/10/15 09:39:59;;;;;;;8.95;7.10;;;17.80;99.90;;;;;;6269149;22;20011;-78
2022/10/15 09:42:36;;;;;;;8.60;7.30;;;18.00;99.90;;;;;;6294398;22;20012;-78
2022/10/15 09:45:14;;;;;;;11.00;7.43;;;18.10;99.90;;;;;;6296232;22;20011;-81
2022/10/15 09:47:41;;;;;;;10.38;7.25;;;18.20;99.90;;;;;;6295471;22;20735;-79
2022/10/15 09:50:09;;;;;;;11.38;7.97;;;18.20;99.90;;;;;;6295172;22;20015;-78
2022/10/15 09:53:04;;;;;;;10.77;7.30;;;18.20;99.90;;;;;;6293774;22;20007;-78
2022/10/15 09:55:41;;;;;;;8.98;7.35;;;18.20;99.90;;;;;;6294896;22;20085;-79
2022/10/15 09:58:25;;;;;;;15.18;6.82;;;18.30;99.90;;;;;;6297774;22;20306;-81
2022/10/15 10:00:52;;;;;;;9.55;6.78;;;18.30;99.90;;;;;;6295474;22;20053;-78
2022/10/15 10:03:18;;;;;;;10.90;6.93;;;18.20;99.90;;;;;;6297311;22;20068;-78
2022/10/15 10:05:44;;;;;;;10.65;6.15;;;18.30;99.90;;;;;;6296968;22;20730;-84
2022/10/15 10:08:23;;;;;;;9.57;6.35;;;18.30;99.90;;;;;;6298795;22;19999;-77
2022/10/15 10:11:02;;;;;;;7.63;6.07;;;18.30;99.90;;;;;;6291175;22;20166;-75
2022/10/15 10:13:45;;;;;;;9.25;6.07;;;18.30;99.90;;;;;;6296326;22;20015;-75
2022/10/15 10:16:12;;;;;;;11.23;6.22;;;18.30;99.90;;;;;;6294652;22;20005;-72
2022/10/15 10:18:38;;;;;;;9.43;6.20;;;18.30;99.90;;;;;;6296146;22;20003;-72
2022/10/15 10:21:21;;;;;;;8.15;6.38;;;18.30;99.90;;;;;;6291480;22;20075;-73
2022/10/15 10:23:47;;;;;;;11.32;6.88;;;18.40;99.90;;;;;;6294013;22;20006;-73
2022/10/15 10:26:13;;;;;;;9.32;6.90;;;18.50;99.90;;;;;;6296013;22;19996;-73
2022/10/15 10:28:55;;;;;;;10.57;7.47;;;18.50;99.90;;;;;;6296517;22;20014;-72
2022/10/15 10:31:32;;;;;;;8.95;5.88;;;18.50;99.90;;;;;;6297053;22;19999;-72
2022/10/15 10:34:02;;;;;;;9.10;6.25;;;18.60;99.90;;;;;;6297177;22;20019;-71
2022/10/15 10:36:32;;;;;;;10.77;6.32;;;18.50;99.90;;;;;;6298220;22;20009;-72
2022/10/15 10:39:23;;;;;;;7.07;6.38;;;18.50;99.90;;;;;;6296098;22;20353;-74
2022/10/15 10:41:52;;;;;;;7.22;6.25;;;18.40;99.90;;;;;;6297217;22;20024;-73
2022/10/15 10:44:31;;;;;;;9.50;5.78;;;18.30;99.90;;;;;;6297417;22;20344;-72
2022/10/15 10:47:10;;;;;;;7.97;6.13;;;18.20;99.90;;;;;;6296321;22;20003;-71
2022/10/15 10:52:28;;;;;;;12.10;5.90;;;18.20;99.90;;;;;;6297873;22;20022;-72
2022/10/15 10:55:18;;;;;;;9.65;6.00;;;18.20;99.90;;;;;;6296962;22;20456;-72
2022/10/15 10:58:01;;;;;;;8.32;6.03;;;18.20;99.90;;;;;;6297186;22;20057;-73
2022/10/15 11:00:38;;;;;;;7.80;6.28;;;18.20;99.90;;;;;;6296568;22;20013;-72
2022/10/15 11:03:05;;;;;;;7.03;5.70;;;18.30;99.90;;;;;;6297454;22;20015;-73
2022/10/15 11:05:33;;;;;;;9.32;6.15;;;18.30;99.90;;;;;;6294120;22;19999;-73
2022/10/15 11:08:20;;;;;;;7.40;5.80;;;18.10;99.90;;;;;;6295758;22;20003;-76
2022/10/15 11:11:01;;;;;;;6.93;5.63;;;18.10;99.90;;;;;;6294698;22;20003;-76
2022/10/15 11:13:45;;;;;;;9.00;5.88;;;17.90;99.90;;;;;;6297542;22;20014;-75
2022/10/15 11:16:22;;;;;;;6.90;5.40;;;17.90;99.90;;;;;;6293229;22;20033;-74
2022/10/15 11:19:12;;;;;;;7.63;5.05;;;17.90;99.90;;;;;;6293270;22;20217;-72
2022/10/15 11:22:17;;;;;;;9.38;5.53;;;17.90;99.90;;;;;;6292321;22;19999;-74
2022/10/15 11:24:57;;;;;;;9.23;4.82;;;17.80;99.90;;;;;;6293231;22;19999;-73
2022/10/15 11:27:23;;;;;;;6.40;5.10;;;17.70;99.90;;;;;;6265971;22;19999;-73
2022/10/15 11:30:26;;;;;;;10.30;5.70;;;17.60;99.90;;;;;;6293676;22;20010;-72
2022/10/15 11:33:12;;;;;;;9.55;5.70;;;17.60;99.90;;;;;;6290946;22;20003;-76
2022/10/15 11:35:48;;;;;;;6.35;5.10;;;17.60;99.90;;;;;;6292196;22;20073;-76
2022/10/15 11:38:23;;;;;;;10.63;5.40;;;17.70;99.90;;;;;;6296413;22;20022;-75
2022/10/15 11:41:07;;;;;;;6.40;4.47;;;17.70;99.90;;;;;;6295717;22;20329;-75
2022/10/15 11:43:56;;;;;;;8.75;5.22;;;17.80;99.90;;;;;;6296476;22;20455;-75
2022/10/15 11:46:41;;;;;;;6.10;4.90;;;17.90;99.90;;;;;;6294706;22;20021;-76
2022/10/15 11:49:44;;;;;;;10.50;5.15;;;17.90;99.90;;;;;;6296621;22;20019;-72
2022/10/15 11:52:42;;;;;;;6.63;5.00;;;17.90;99.90;;;;;;6295487;22;20003;-72
2022/10/15 11:55:17;;;;;;;7.05;4.25;;;17.90;99.90;;;;;;6266109;22;20346;-72
2022/10/15 11:57:46;;;;;;;9.38;4.80;;;17.80;99.90;;;;;;6297199;22;19999;-75
2022/10/15 12:00:44;;;;;;;6.50;4.40;;;17.80;99.90;;;;;;6296626;22;20777;-76
2022/10/15 12:03:17;;;;;;;8.85;4.43;;;17.80;99.90;;;;;;6294335;22;20022;-75
2022/10/15 12:05:52;;;;;;;5.25;4.53;;;17.80;99.90;;;;;;6291382;22;20034;-74
2022/10/15 12:08:19;;;;;;;9.93;4.43;;;17.70;99.90;;;;;;6292092;22;20003;-74
2022/10/15 12:10:54;;;;;;;6.05;4.97;;;17.80;99.90;;;;;;6292804;22;19996;-74
2022/10/15 12:13:19;;;;;;;10.43;4.63;;;17.80;99.90;;;;;;6293289;22;20007;-74
2022/10/15 12:16:19;;;;;;;5.60;4.57;;;17.80;99.90;;;;;;6289855;22;20017;-72
2022/10/15 12:18:58;;;;;;;6.00;4.53;;;17.80;99.90;;;;;;6292485;22;20487;-74
2022/10/15 12:22:05;;;;;;;20.40;5.00;;;17.80;99.90;;;;;;6293391;22;20003;-88
2022/10/15 12:24:47;;;;;;;8.23;5.05;;;17.80;99.90;;;;;;6291832;22;20007;-89
2022/10/15 12:27:19;;;;;;;8.05;5.10;;;17.80;99.90;;;;;;6293666;22;19995;-88
2022/10/15 12:30:12;;;;;;;9.98;5.07;;;17.80;99.90;;;;;;6293850;22;20012;-83
2022/10/15 12:32:40;;;;;;;9.57;4.72;;;17.80;99.90;;;;;;6288862;22;20015;-83
2022/10/15 12:35:32;;;;;;;6.72;4.20;;;17.60;99.90;;;;;;6294600;22;20517;-89
2022/10/15 12:38:10;;;;;;;9.80;5.88;;;17.60;99.90;;;;;;6280055;22;20004;-85
2022/10/15 12:40:37;;;;;;;9.13;4.78;;;17.60;99.90;;;;;;6269979;22;20115;-85
2022/10/15 12:43:18;;;;;;;9.05;4.88;;;17.60;99.90;;;;;;6296726;22;20061;-63
2022/10/15 12:45:53;;;;;;;6.00;4.60;;;17.70;99.90;;;;;;6267694;22;19995;-62
2022/10/15 12:48:29;;;;;;;7.00;4.30;;;17.70;99.90;;;;;;6294856;22;20022;-62
2022/10/15 12:51:22;;;;;;;5.35;4.60;;;17.70;99.90;;;;;;6295102;22;20458;-62
2022/10/15 12:53:50;;;;;;;6.95;4.85;;;17.80;99.90;;;;;;6295019;22;20043;-62
2022/10/15 12:56:16;;;;;;;12.68;4.32;;;17.90;99.90;;;;;;6296315;22;20014;-63
2022/10/15 12:58:52;;;;;;;6.55;4.40;;;17.80;99.90;;;;;;6295879;22;19996;-63
2022/10/15 13:01:18;;;;;;;4.78;4.18;;;17.80;99.90;;;;;;6293321;22;20006;-63
2022/10/15 13:03:49;;;;;;;7.38;4.38;;;17.80;99.90;;;;;;6294137;22;20003;-62